Airfield :
LOGIN :

Register | Disclaimer

   EN    FR    IT 

 










Legend :    VFR   Marginal VFR   IFR   Intensive IFR   Very Intensive IFR
Visi :
Ceiling :
>= 8 km
>= 3000ft
5 to 8 km
1000 to 3000 ft
1500m to 5 km
500 to 1000 ft
800 to 1500m
200 to 500 ft
< 800m
< 200 ft
Symbols :   Thunderstorms  Fog  Heavy snow  Heavy precipitations  Wind > 20 kt
SIGMETs :     Misc.  Thunderstorms  Icing  Turbulence  Mountain Waves  Volcanic Ashes






- Airport Elevation : 75 ft
- IATA code : MRH


EGYM - RAF Marham

CURRENT METAR :
  • 070820Z 20014KT 9999 FEW008 BKN200 13/11 Q1018 NOSIG RMK BLU BLU

EXPIRED METARs :
  • 070750Z 20015KT 9999 FEW008 BKN200 13/11 Q1018 NOSIG RMK BLU BLU
  • 070720Z 20014KT 9999 FEW010 BKN200 12/11 Q1018 NOSIG RMK BLU BLU
  • 070650Z 20012KT 9999 FEW010 BKN200 12/11 Q1018 NOSIG RMK BLU BLU
  • 070620Z 20011KT 9999 FEW010 SCT200 11/10 Q1019 NOSIG RMK BLU BLU
  • 070550Z 20013KT 9999 FEW029 SCT200 11/10 Q1019 NOSIG RMK BLU BLU

TAF TAF EGYM
Valid from the 07 at 09:00 until the 07 at 18:00 UTC


070737Z 0709/0718 21012G22KT 9999 FEW015
PROB30
TEMPO 0709/0711 21015G25KT
BECMG 0711/0718 23015G25KT
PROB30
TEMPO 0711/0718 23025G35KT
TEMPO 0715/0718 6000 -SHRA
PROB30
TEMPO 0715/0718 4000 SHRA SCT022TCU



MET'MAP, your aeronautical weather chart ! - Copyright ORBIFLY December 2007 - Disclaimer

ORBIFLY MET'MAP TEAM :

Programming & Development : Alexandra Zaïnal
Original concept : Baudouin d'Aumeries
Technical & hardware support : Manuel Goepfert
Assistance : Marc-Olivier Méhu




SOURCES & CREDITS :

   NOAA